sensor_id;sensor_type;location;lat;lon;timestamp;temperature;humidity
20380;DHT22;10349;48.666;8.948;2022-09-24T00:01:14;10.40;99.90
20380;DHT22;10349;48.666;8.948;2022-09-24T00:03:42;10.40;99.90
20380;DHT22;10349;48.666;8.948;2022-09-24T00:06:10;10.40;99.90
20380;DHT22;10349;48.666;8.948;2022-09-24T00:08:39;10.40;99.90
20380;DHT22;10349;48.666;8.948;2022-09-24T00:11:06;10.30;99.90
20380;DHT22;10349;48.666;8.948;2022-09-24T00:13:33;10.30;99.90
20380;DHT22;10349;48.666;8.948;2022-09-24T00:16:05;10.30;99.90
20380;DHT22;10349;48.666;8.948;2022-09-24T00:18:32;10.30;99.90
20380;DHT22;10349;48.666;8.948;2022-09-24T00:20:58;10.40;99.90
20380;DHT22;10349;48.666;8.948;2022-09-24T00:23:24;10.40;99.90
20380;DHT22;10349;48.666;8.948;2022-09-24T00:25:49;10.40;99.90
20380;DHT22;10349;48.666;8.948;2022-09-24T00:28:34;10.40;99.90
20380;DHT22;10349;48.666;8.948;2022-09-24T00:31:04;10.40;99.90
20380;DHT22;10349;48.666;8.948;2022-09-24T00:33:32;10.40;99.90
20380;DHT22;10349;48.666;8.948;2022-09-24T00:36:04;10.40;99.90
20380;DHT22;10349;48.666;8.948;2022-09-24T00:38:33;10.40;99.90
20380;DHT22;10349;48.666;8.948;2022-09-24T00:40:59;10.30;99.90
20380;DHT22;10349;48.666;8.948;2022-09-24T00:43:32;10.30;99.90
20380;DHT22;10349;48.666;8.948;2022-09-24T00:48:46;10.10;99.90
20380;DHT22;10349;48.666;8.948;2022-09-24T00:51:17;10.10;99.90
20380;DHT22;10349;48.666;8.948;2022-09-24T00:53:45;10.10;99.90
20380;DHT22;10349;48.666;8.948;2022-09-24T00:56:14;10.00;99.90
20380;DHT22;10349;48.666;8.948;2022-09-24T00:58:45;10.00;99.90
20380;DHT22;10349;48.666;8.948;2022-09-24T01:01:13;10.00;99.90
20380;DHT22;10349;48.666;8.948;2022-09-24T01:03:40;10.00;99.90
20380;DHT22;10349;48.666;8.948;2022-09-24T01:06:10;10.00;99.90
20380;DHT22;10349;48.666;8.948;2022-09-24T01:08:36;9.90;99.90
20380;DHT22;10349;48.666;8.948;2022-09-24T01:19:10;9.90;99.90
20380;DHT22;10349;48.666;8.948;2022-09-24T01:21:47;9.90;99.90
20380;DHT22;10349;48.666;8.948;2022-09-24T01:27:42;9.80;99.90
20380;DHT22;10349;48.666;8.948;2022-09-24T01:30:10;9.80;99.90
20380;DHT22;10349;48.666;8.948;2022-09-24T01:32:49;9.80;99.90
20380;DHT22;10349;48.666;8.948;2022-09-24T01:35:23;9.70;99.90
20380;DHT22;10349;48.666;8.948;2022-09-24T01:37:55;9.60;99.90
20380;DHT22;10349;48.666;8.948;2022-09-24T01:40:24;9.50;99.90
20380;DHT22;10349;48.666;8.948;2022-09-24T01:42:52;9.40;99.90
20380;DHT22;10349;48.666;8.948;2022-09-24T01:45:20;9.40;99.90
20380;DHT22;10349;48.666;8.948;2022-09-24T01:47:45;9.30;99.90
20380;DHT22;10349;48.666;8.948;2022-09-24T01:50:14;9.30;99.90
20380;DHT22;10349;48.666;8.948;2022-09-24T01:55:27;9.10;99.90
20380;DHT22;10349;48.666;8.948;2022-09-24T01:58:04;9.00;99.90
20380;DHT22;10349;48.666;8.948;2022-09-24T02:00:31;8.90;99.90
20380;DHT22;10349;48.666;8.948;2022-09-24T02:03:14;8.90;99.90
20380;DHT22;10349;48.666;8.948;2022-09-24T02:05:45;8.90;99.90
20380;DHT22;10349;48.666;8.948;2022-09-24T02:08:23;8.90;99.90
20380;DHT22;10349;48.666;8.948;2022-09-24T02:13:24;8.80;99.90
20380;DHT22;10349;48.666;8.948;2022-09-24T02:15:53;8.80;99.90
20380;DHT22;10349;48.666;8.948;2022-09-24T02:18:24;8.80;99.90
20380;DHT22;10349;48.666;8.948;2022-09-24T02:20:51;8.80;99.90
20380;DHT22;10349;48.666;8.948;2022-09-24T02:23:18;8.90;99.90
20380;DHT22;10349;48.666;8.948;2022-09-24T02:25:54;8.90;99.90
20380;DHT22;10349;48.666;8.948;2022-09-24T02:28:22;8.90;99.90
20380;DHT22;10349;48.666;8.948;2022-09-24T02:33:41;8.90;99.90
20380;DHT22;10349;48.666;8.948;2022-09-24T02:36:28;8.90;99.90
20380;DHT22;10349;48.666;8.948;2022-09-24T02:38:54;8.90;99.90
20380;DHT22;10349;48.666;8.948;2022-09-24T02:41:21;8.90;99.90
20380;DHT22;10349;48.666;8.948;2022-09-24T02:43:49;8.80;99.90
20380;DHT22;10349;48.666;8.948;2022-09-24T02:46:15;8.90;99.90
20380;DHT22;10349;48.666;8.948;2022-09-24T02:48:41;8.90;99.90
20380;DHT22;10349;48.666;8.948;2022-09-24T02:51:06;8.80;99.90
20380;DHT22;10349;48.666;8.948;2022-09-24T02:53:32;8.70;99.90
20380;DHT22;10349;48.666;8.948;2022-09-24T02:55:58;8.80;99.90
20380;DHT22;10349;48.666;8.948;2022-09-24T02:58:27;8.80;99.90
20380;DHT22;10349;48.666;8.948;2022-09-24T03:00:54;8.80;99.90
20380;DHT22;10349;48.666;8.948;2022-09-24T03:03:23;8.90;99.90
20380;DHT22;10349;48.666;8.948;2022-09-24T03:05:49;8.90;99.90
20380;DHT22;10349;48.666;8.948;2022-09-24T03:08:18;8.90;99.90
20380;DHT22;10349;48.666;8.948;2022-09-24T03:10:44;8.90;99.90
20380;DHT22;10349;48.666;8.948;2022-09-24T03:13:11;9.00;99.90
20380;DHT22;10349;48.666;8.948;2022-09-24T03:15:37;9.10;99.90
20380;DHT22;10349;48.666;8.948;2022-09-24T03:18:02;9.10;99.90
20380;DHT22;10349;48.666;8.948;2022-09-24T03:20:28;9.10;99.90
20380;DHT22;10349;48.666;8.948;2022-09-24T03:22:54;9.10;99.90
20380;DHT22;10349;48.666;8.948;2022-09-24T03:25:20;9.10;99.90
20380;DHT22;10349;48.666;8.948;2022-09-24T03:27:46;9.20;99.90
20380;DHT22;10349;48.666;8.948;2022-09-24T03:30:12;9.20;99.90
20380;DHT22;10349;48.666;8.948;2022-09-24T03:32:57;9.20;99.90
20380;DHT22;10349;48.666;8.948;2022-09-24T03:35:22;9.20;99.90
20380;DHT22;10349;48.666;8.948;2022-09-24T03:37:48;9.20;99.90
20380;DHT22;10349;48.666;8.948;2022-09-24T03:40:14;9.10;99.90
20380;DHT22;10349;48.666;8.948;2022-09-24T03:42:39;9.00;99.90
20380;DHT22;10349;48.666;8.948;2022-09-24T03:45:05;9.00;99.90
20380;DHT22;10349;48.666;8.948;2022-09-24T03:47:32;9.10;99.90
20380;DHT22;10349;48.666;8.948;2022-09-24T03:49:58;9.10;99.90
20380;DHT22;10349;48.666;8.948;2022-09-24T03:52:24;9.10;99.90
20380;DHT22;10349;48.666;8.948;2022-09-24T03:54:50;9.10;99.90
20380;DHT22;10349;48.666;8.948;2022-09-24T03:57:16;9.20;99.90
20380;DHT22;10349;48.666;8.948;2022-09-24T03:59:43;9.20;99.90
20380;DHT22;10349;48.666;8.948;2022-09-24T04:02:10;9.20;99.90
20380;DHT22;10349;48.666;8.948;2022-09-24T04:04:36;9.20;99.90
20380;DHT22;10349;48.666;8.948;2022-09-24T04:07:01;9.20;99.90
20380;DHT22;10349;48.666;8.948;2022-09-24T04:09:27;9.20;99.90
20380;DHT22;10349;48.666;8.948;2022-09-24T04:11:53;9.20;99.90
20380;DHT22;10349;48.666;8.948;2022-09-24T04:14:19;9.20;99.90
20380;DHT22;10349;48.666;8.948;2022-09-24T04:16:45;9.20;99.90
20380;DHT22;10349;48.666;8.948;2022-09-24T04:19:12;9.20;99.90
20380;DHT22;10349;48.666;8.948;2022-09-24T04:21:41;9.20;99.90
20380;DHT22;10349;48.666;8.948;2022-09-24T04:24:07;9.20;99.90
20380;DHT22;10349;48.666;8.948;2022-09-24T04:26:32;9.30;99.90
20380;DHT22;10349;48.666;8.948;2022-09-24T04:28:58;9.30;99.90
20380;DHT22;10349;48.666;8.948;2022-09-24T04:31:24;9.30;99.90
20380;DHT22;10349;48.666;8.948;2022-09-24T04:33:52;9.30;99.90
20380;DHT22;10349;48.666;8.948;2022-09-24T04:36:18;9.30;99.90
20380;DHT22;10349;48.666;8.948;2022-09-24T04:38:44;9.30;99.90
20380;DHT22;10349;48.666;8.948;2022-09-24T04:41:11;9.30;99.90
20380;DHT22;10349;48.666;8.948;2022-09-24T04:43:37;9.30;99.90
20380;DHT22;10349;48.666;8.948;2022-09-24T04:46:03;9.40;99.90
20380;DHT22;10349;48.666;8.948;2022-09-24T04:48:29;9.40;99.90
20380;DHT22;10349;48.666;8.948;2022-09-24T04:50:55;9.40;99.90
20380;DHT22;10349;48.666;8.948;2022-09-24T04:53:20;9.40;99.90
20380;DHT22;10349;48.666;8.948;2022-09-24T04:55:47;9.50;99.90
20380;DHT22;10349;48.666;8.948;2022-09-24T04:58:13;9.50;99.90
20380;DHT22;10349;48.666;8.948;2022-09-24T05:00:39;9.50;99.90
20380;DHT22;10349;48.666;8.948;2022-09-24T05:03:07;9.50;99.90
20380;DHT22;10349;48.666;8.948;2022-09-24T05:05:34;9.50;99.90
20380;DHT22;10349;48.666;8.948;2022-09-24T05:08:00;9.50;99.90
20380;DHT22;10349;48.666;8.948;2022-09-24T05:10:27;9.50;99.90
20380;DHT22;10349;48.666;8.948;2022-09-24T05:12:54;9.50;99.90
20380;DHT22;10349;48.666;8.948;2022-09-24T05:15:20;9.40;99.90
20380;DHT22;10349;48.666;8.948;2022-09-24T05:17:46;9.40;99.90
20380;DHT22;10349;48.666;8.948;2022-09-24T05:20:12;9.40;99.90
20380;DHT22;10349;48.666;8.948;2022-09-24T05:22:42;9.30;99.90
20380;DHT22;10349;48.666;8.948;2022-09-24T05:25:09;9.30;99.90
20380;DHT22;10349;48.666;8.948;2022-09-24T05:27:35;9.40;99.90
20380;DHT22;10349;48.666;8.948;2022-09-24T05:30:01;9.40;99.90
20380;DHT22;10349;48.666;8.948;2022-09-24T05:32:26;9.40;99.90
20380;DHT22;10349;48.666;8.948;2022-09-24T05:34:52;9.40;99.90
20380;DHT22;10349;48.666;8.948;2022-09-24T05:37:18;9.40;99.90
20380;DHT22;10349;48.666;8.948;2022-09-24T05:39:44;9.40;99.90
20380;DHT22;10349;48.666;8.948;2022-09-24T05:42:10;9.30;99.90
20380;DHT22;10349;48.666;8.948;2022-09-24T05:44:39;9.30;99.90
20380;DHT22;10349;48.666;8.948;2022-09-24T05:47:04;9.40;99.90
20380;DHT22;10349;48.666;8.948;2022-09-24T05:49:30;9.40;99.90
20380;DHT22;10349;48.666;8.948;2022-09-24T05:51:56;9.40;99.90
20380;DHT22;10349;48.666;8.948;2022-09-24T05:54:22;9.50;99.90
20380;DHT22;10349;48.666;8.948;2022-09-24T05:56:47;9.50;99.90
20380;DHT22;10349;48.666;8.948;2022-09-24T05:59:13;9.60;99.90
20380;DHT22;10349;48.666;8.948;2022-09-24T06:01:38;9.60;99.90
20380;DHT22;10349;48.666;8.948;2022-09-24T06:04:04;9.60;99.90
20380;DHT22;10349;48.666;8.948;2022-09-24T06:06:30;9.60;99.90
20380;DHT22;10349;48.666;8.948;2022-09-24T06:08:55;9.70;99.90
20380;DHT22;10349;48.666;8.948;2022-09-24T06:11:21;9.70;99.90
20380;DHT22;10349;48.666;8.948;2022-09-24T06:13:48;9.80;99.90
20380;DHT22;10349;48.666;8.948;2022-09-24T06:16:13;9.80;99.90
20380;DHT22;10349;48.666;8.948;2022-09-24T06:18:41;9.90;99.90
20380;DHT22;10349;48.666;8.948;2022-09-24T06:21:10;10.00;99.90
20380;DHT22;10349;48.666;8.948;2022-09-24T06:23:37;10.10;99.90
20380;DHT22;10349;48.666;8.948;2022-09-24T06:26:04;10.10;99.90
20380;DHT22;10349;48.666;8.948;2022-09-24T06:28:30;10.20;99.90
20380;DHT22;10349;48.666;8.948;2022-09-24T06:30:59;10.20;99.90
20380;DHT22;10349;48.666;8.948;2022-09-24T06:33:24;10.30;99.90
20380;DHT22;10349;48.666;8.948;2022-09-24T06:35:50;10.40;99.90
20380;DHT22;10349;48.666;8.948;2022-09-24T06:38:17;10.40;99.90
20380;DHT22;10349;48.666;8.948;2022-09-24T06:40:44;10.50;99.90
20380;DHT22;10349;48.666;8.948;2022-09-24T06:43:11;10.50;99.90
20380;DHT22;10349;48.666;8.948;2022-09-24T06:45:38;10.50;99.90
20380;DHT22;10349;48.666;8.948;2022-09-24T06:48:04;10.60;99.90
20380;DHT22;10349;48.666;8.948;2022-09-24T06:50:32;10.70;99.90
20380;DHT22;10349;48.666;8.948;2022-09-24T06:52:59;10.70;99.90
20380;DHT22;10349;48.666;8.948;2022-09-24T06:55:25;10.80;99.90
20380;DHT22;10349;48.666;8.948;2022-09-24T06:58:01;10.80;99.90
20380;DHT22;10349;48.666;8.948;2022-09-24T07:00:27;10.80;99.90
20380;DHT22;10349;48.666;8.948;2022-09-24T07:02:53;10.80;99.90
20380;DHT22;10349;48.666;8.948;2022-09-24T07:05:18;10.90;99.90
20380;DHT22;10349;48.666;8.948;2022-09-24T07:07:44;10.90;99.90
20380;DHT22;10349;48.666;8.948;2022-09-24T07:10:09;11.00;99.90
20380;DHT22;10349;48.666;8.948;2022-09-24T07:12:35;11.00;99.90
20380;DHT22;10349;48.666;8.948;2022-09-24T07:15:01;11.00;99.90
20380;DHT22;10349;48.666;8.948;2022-09-24T07:17:27;11.10;99.90
20380;DHT22;10349;48.666;8.948;2022-09-24T07:19:53;11.20;99.90
20380;DHT22;10349;48.666;8.948;2022-09-24T07:22:20;11.30;99.90
20380;DHT22;10349;48.666;8.948;2022-09-24T07:24:46;11.30;99.90
20380;DHT22;10349;48.666;8.948;2022-09-24T07:27:13;11.40;99.90
20380;DHT22;10349;48.666;8.948;2022-09-24T07:29:39;11.50;99.90
20380;DHT22;10349;48.666;8.948;2022-09-24T07:32:05;11.50;99.90
20380;DHT22;10349;48.666;8.948;2022-09-24T07:34:31;11.60;99.90
20380;DHT22;10349;48.666;8.948;2022-09-24T07:37:05;11.70;99.90
20380;DHT22;10349;48.666;8.948;2022-09-24T07:39:32;11.70;99.90
20380;DHT22;10349;48.666;8.948;2022-09-24T07:41:58;11.70;99.90
20380;DHT22;10349;48.666;8.948;2022-09-24T07:44:26;11.70;99.90
20380;DHT22;10349;48.666;8.948;2022-09-24T07:46:51;11.70;99.90
20380;DHT22;10349;48.666;8.948;2022-09-24T07:49:17;11.80;99.90
20380;DHT22;10349;48.666;8.948;2022-09-24T07:51:43;11.80;99.90
20380;DHT22;10349;48.666;8.948;2022-09-24T07:54:09;11.80;99.90
20380;DHT22;10349;48.666;8.948;2022-09-24T07:56:36;11.90;99.90
20380;DHT22;10349;48.666;8.948;2022-09-24T07:59:03;11.90;99.90
20380;DHT22;10349;48.666;8.948;2022-09-24T08:01:31;12.00;99.90
20380;DHT22;10349;48.666;8.948;2022-09-24T08:03:57;12.00;99.90
20380;DHT22;10349;48.666;8.948;2022-09-24T08:06:24;12.00;99.90
20380;DHT22;10349;48.666;8.948;2022-09-24T08:08:50;12.10;99.90
20380;DHT22;10349;48.666;8.948;2022-09-24T08:11:18;12.00;99.90
20380;DHT22;10349;48.666;8.948;2022-09-24T08:13:44;12.10;99.90
20380;DHT22;10349;48.666;8.948;2022-09-24T08:16:10;12.20;99.90
20380;DHT22;10349;48.666;8.948;2022-09-24T08:18:36;12.20;99.90
20380;DHT22;10349;48.666;8.948;2022-09-24T08:21:06;12.20;99.90
20380;DHT22;10349;48.666;8.948;2022-09-24T08:23:34;12.20;99.90
20380;DHT22;10349;48.666;8.948;2022-09-24T08:26:01;12.20;99.90
20380;DHT22;10349;48.666;8.948;2022-09-24T08:28:27;12.20;99.90
20380;DHT22;10349;48.666;8.948;2022-09-24T08:30:57;12.20;99.90
20380;DHT22;10349;48.666;8.948;2022-09-24T08:33:23;12.20;99.90
20380;DHT22;10349;48.666;8.948;2022-09-24T08:35:49;12.10;99.90
20380;DHT22;10349;48.666;8.948;2022-09-24T08:38:15;12.10;99.90
20380;DHT22;10349;48.666;8.948;2022-09-24T08:40:48;12.10;99.90
20380;DHT22;10349;48.666;8.948;2022-09-24T08:43:45;12.10;99.90
20380;DHT22;10349;48.666;8.948;2022-09-24T08:46:23;12.10;99.90
20380;DHT22;10349;48.666;8.948;2022-09-24T08:49:11;12.20;99.90
20380;DHT22;10349;48.666;8.948;2022-09-24T08:51:49;12.20;99.90
20380;DHT22;10349;48.666;8.948;2022-09-24T08:54:18;12.30;99.90
20380;DHT22;10349;48.666;8.948;2022-09-24T08:56:45;12.30;99.90
20380;DHT22;10349;48.666;8.948;2022-09-24T08:59:28;12.40;99.90
20380;DHT22;10349;48.666;8.948;2022-09-24T09:04:32;12.50;99.90
20380;DHT22;10349;48.666;8.948;2022-09-24T09:12:52;12.70;99.90
20380;DHT22;10349;48.666;8.948;2022-09-24T09:15:22;12.80;99.90
20380;DHT22;10349;48.666;8.948;2022-09-24T09:17:58;12.90;99.90
20380;DHT22;10349;48.666;8.948;2022-09-24T09:23:02;13.00;99.90
20380;DHT22;10349;48.666;8.948;2022-09-24T09:25:34;13.00;99.90
20380;DHT22;10349;48.666;8.948;2022-09-24T09:28:13;13.00;99.90
20380;DHT22;10349;48.666;8.948;2022-09-24T09:33:36;13.10;99.90
20380;DHT22;10349;48.666;8.948;2022-09-24T09:36:30;13.10;99.90
20380;DHT22;10349;48.666;8.948;2022-09-24T09:39:32;13.20;99.90
20380;DHT22;10349;48.666;8.948;2022-09-24T09:42:28;13.30;99.90
20380;DHT22;10349;48.666;8.948;2022-09-24T09:44:54;13.40;99.90
20380;DHT22;10349;48.666;8.948;2022-09-24T09:50:18;13.40;99.90
20380;DHT22;10349;48.666;8.948;2022-09-24T09:52:47;13.50;99.90
20380;DHT22;10349;48.666;8.948;2022-09-24T09:55:35;13.50;99.90
20380;DHT22;10349;48.666;8.948;2022-09-24T09:58:19;13.40;99.90
20380;DHT22;10349;48.666;8.948;2022-09-24T10:00:46;13.40;99.90
20380;DHT22;10349;48.666;8.948;2022-09-24T10:03:25;13.40;99.90
20380;DHT22;10349;48.666;8.948;2022-09-24T10:06:03;13.50;99.90
20380;DHT22;10349;48.666;8.948;2022-09-24T10:08:30;13.50;99.90
20380;DHT22;10349;48.666;8.948;2022-09-24T10:10:58;13.50;99.90
20380;DHT22;10349;48.666;8.948;2022-09-24T10:13:25;13.50;99.90
20380;DHT22;10349;48.666;8.948;2022-09-24T10:15:55;13.60;99.90
20380;DHT22;10349;48.666;8.948;2022-09-24T10:18:48;13.60;99.90
20380;DHT22;10349;48.666;8.948;2022-09-24T10:21:30;13.60;99.90
20380;DHT22;10349;48.666;8.948;2022-09-24T10:24:00;13.60;99.90
20380;DHT22;10349;48.666;8.948;2022-09-24T10:26:38;13.80;99.90
20380;DHT22;10349;48.666;8.948;2022-09-24T10:29:05;13.70;99.90
20380;DHT22;10349;48.666;8.948;2022-09-24T10:31:52;13.70;99.90
20380;DHT22;10349;48.666;8.948;2022-09-24T10:34:24;13.80;99.90
20380;DHT22;10349;48.666;8.948;2022-09-24T10:37:02;13.90;99.90
20380;DHT22;10349;48.666;8.948;2022-09-24T10:39:28;14.00;99.90
20380;DHT22;10349;48.666;8.948;2022-09-24T10:41:55;14.10;99.90
20380;DHT22;10349;48.666;8.948;2022-09-24T10:44:22;14.10;99.90
20380;DHT22;10349;48.666;8.948;2022-09-24T10:49:51;14.30;99.90
20380;DHT22;10349;48.666;8.948;2022-09-24T10:58:00;14.60;99.90
20380;DHT22;10349;48.666;8.948;2022-09-24T11:00:39;14.80;99.90
20380;DHT22;10349;48.666;8.948;2022-09-24T11:03:23;14.90;99.90
20380;DHT22;10349;48.666;8.948;2022-09-24T11:13:43;15.10;99.90
20380;DHT22;10349;48.666;8.948;2022-09-24T11:16:42;15.10;99.90
20380;DHT22;10349;48.666;8.948;2022-09-24T11:22:24;15.20;99.90
20380;DHT22;10349;48.666;8.948;2022-09-24T11:25:19;15.20;99.90
20380;DHT22;10349;48.666;8.948;2022-09-24T11:36:52;15.30;99.90
20380;DHT22;10349;48.666;8.948;2022-09-24T11:42:14;15.20;99.90
20380;DHT22;10349;48.666;8.948;2022-09-24T11:45:16;15.20;99.90
20380;DHT22;10349;48.666;8.948;2022-09-24T11:48:02;15.20;99.90
20380;DHT22;10349;48.666;8.948;2022-09-24T11:53:10;15.20;99.90
20380;DHT22;10349;48.666;8.948;2022-09-24T11:55:49;15.10;99.90
20380;DHT22;10349;48.666;8.948;2022-09-24T11:58:23;15.10;99.90
20380;DHT22;10349;48.666;8.948;2022-09-24T12:00:56;15.10;99.90
20380;DHT22;10349;48.666;8.948;2022-09-24T12:03:49;15.10;99.90
20380;DHT22;10349;48.666;8.948;2022-09-24T12:06:24;15.00;99.90
20380;DHT22;10349;48.666;8.948;2022-09-24T12:09:25;15.00;99.90
20380;DHT22;10349;48.666;8.948;2022-09-24T12:11:52;15.00;99.90
20380;DHT22;10349;48.666;8.948;2022-09-24T12:14:29;15.00;99.90
20380;DHT22;10349;48.666;8.948;2022-09-24T12:17:00;15.00;99.90
20380;DHT22;10349;48.666;8.948;2022-09-24T12:20:03;15.00;99.90
20380;DHT22;10349;48.666;8.948;2022-09-24T12:22:33;15.00;99.90
20380;DHT22;10349;48.666;8.948;2022-09-24T12:25:00;14.90;99.90
20380;DHT22;10349;48.666;8.948;2022-09-24T12:27:33;14.90;99.90
20380;DHT22;10349;48.666;8.948;2022-09-24T12:38:23;15.10;99.90
20380;DHT22;10349;48.666;8.948;2022-09-24T12:41:30;15.20;99.90
20380;DHT22;10349;48.666;8.948;2022-09-24T12:44:04;15.20;99.90
20380;DHT22;10349;48.666;8.948;2022-09-24T12:46:54;15.20;99.90
20380;DHT22;10349;48.666;8.948;2022-09-24T12:54:30;15.10;99.90
20380;DHT22;10349;48.666;8.948;2022-09-24T12:57:29;15.00;99.90
20380;DHT22;10349;48.666;8.948;2022-09-24T13:00:00;15.00;99.90
20380;DHT22;10349;48.666;8.948;2022-09-24T13:02:47;15.00;99.90
20380;DHT22;10349;48.666;8.948;2022-09-24T13:10:27;15.10;99.90
20380;DHT22;10349;48.666;8.948;2022-09-24T13:12:53;15.10;99.90
20380;DHT22;10349;48.666;8.948;2022-09-24T13:17:46;15.20;99.90
20380;DHT22;10349;48.666;8.948;2022-09-24T13:20:23;15.30;99.90
20380;DHT22;10349;48.666;8.948;2022-09-24T13:22:56;15.30;99.90
20380;DHT22;10349;48.666;8.948;2022-09-24T13:25:23;15.30;99.90
20380;DHT22;10349;48.666;8.948;2022-09-24T13:28:01;15.40;99.90
20380;DHT22;10349;48.666;8.948;2022-09-24T13:30:33;15.40;99.90
20380;DHT22;10349;48.666;8.948;2022-09-24T13:33:21;15.40;99.90
20380;DHT22;10349;48.666;8.948;2022-09-24T13:36:13;15.50;99.90
20380;DHT22;10349;48.666;8.948;2022-09-24T13:44:49;15.60;99.90
20380;DHT22;10349;48.666;8.948;2022-09-24T13:47:39;15.60;99.90
20380;DHT22;10349;48.666;8.948;2022-09-24T13:50:14;15.80;99.90
20380;DHT22;10349;48.666;8.948;2022-09-24T13:52:47;15.90;99.90
20380;DHT22;10349;48.666;8.948;2022-09-24T13:55:21;16.00;99.90
20380;DHT22;10349;48.666;8.948;2022-09-24T13:57:47;16.00;99.90
20380;DHT22;10349;48.666;8.948;2022-09-24T14:00:15;16.10;99.90
20380;DHT22;10349;48.666;8.948;2022-09-24T14:02:57;16.10;99.90
20380;DHT22;10349;48.666;8.948;2022-09-24T14:05:24;16.10;99.90
20380;DHT22;10349;48.666;8.948;2022-09-24T14:07:54;16.00;99.90
20380;DHT22;10349;48.666;8.948;2022-09-24T14:10:20;16.00;99.90
20380;DHT22;10349;48.666;8.948;2022-09-24T14:13:12;16.00;99.90
20380;DHT22;10349;48.666;8.948;2022-09-24T14:15:57;16.00;99.90
20380;DHT22;10349;48.666;8.948;2022-09-24T14:18:27;16.10;99.90
20380;DHT22;10349;48.666;8.948;2022-09-24T14:23:52;16.00;99.90
20380;DHT22;10349;48.666;8.948;2022-09-24T14:29:11;16.00;99.90
20380;DHT22;10349;48.666;8.948;2022-09-24T14:31:46;16.10;99.90
20380;DHT22;10349;48.666;8.948;2022-09-24T14:34:37;16.00;99.90
20380;DHT22;10349;48.666;8.948;2022-09-24T14:37:23;16.00;99.90
20380;DHT22;10349;48.666;8.948;2022-09-24T14:40:00;16.00;99.90
20380;DHT22;10349;48.666;8.948;2022-09-24T14:42:36;16.00;99.90
20380;DHT22;10349;48.666;8.948;2022-09-24T14:45:05;16.10;99.90
20380;DHT22;10349;48.666;8.948;2022-09-24T14:47:34;16.10;99.90
20380;DHT22;10349;48.666;8.948;2022-09-24T14:50:02;16.10;99.90
20380;DHT22;10349;48.666;8.948;2022-09-24T14:52:36;16.00;99.90
20380;DHT22;10349;48.666;8.948;2022-09-24T14:55:18;16.00;99.90
20380;DHT22;10349;48.666;8.948;2022-09-24T14:57:45;16.00;99.90
20380;DHT22;10349;48.666;8.948;2022-09-24T15:00:26;16.00;99.90
20380;DHT22;10349;48.666;8.948;2022-09-24T15:02:59;16.00;99.90
20380;DHT22;10349;48.666;8.948;2022-09-24T15:05:27;16.00;99.90
20380;DHT22;10349;48.666;8.948;2022-09-24T15:11:03;16.00;99.90
20380;DHT22;10349;48.666;8.948;2022-09-24T15:13:38;16.00;99.90
20380;DHT22;10349;48.666;8.948;2022-09-24T15:21:32;15.80;99.90
20380;DHT22;10349;48.666;8.948;2022-09-24T15:23:58;15.70;99.90
20380;DHT22;10349;48.666;8.948;2022-09-24T15:26:27;15.70;99.90
20380;DHT22;10349;48.666;8.948;2022-09-24T15:28:59;15.60;99.90
20380;DHT22;10349;48.666;8.948;2022-09-24T15:31:25;15.60;99.90
20380;DHT22;10349;48.666;8.948;2022-09-24T15:33:51;15.70;99.90
20380;DHT22;10349;48.666;8.948;2022-09-24T15:36:17;15.70;99.90
20380;DHT22;10349;48.666;8.948;2022-09-24T15:38:49;15.70;99.90
20380;DHT22;10349;48.666;8.948;2022-09-24T15:41:16;15.70;99.90
20380;DHT22;10349;48.666;8.948;2022-09-24T15:43:42;15.70;99.90
20380;DHT22;10349;48.666;8.948;2022-09-24T15:46:07;15.70;99.90
20380;DHT22;10349;48.666;8.948;2022-09-24T15:48:33;15.80;99.90
20380;DHT22;10349;48.666;8.948;2022-09-24T15:51:00;15.70;99.90
20380;DHT22;10349;48.666;8.948;2022-09-24T15:53:27;15.80;99.90
20380;DHT22;10349;48.666;8.948;2022-09-24T15:55:59;15.80;99.90
20380;DHT22;10349;48.666;8.948;2022-09-24T15:58:25;15.70;99.90
20380;DHT22;10349;48.666;8.948;2022-09-24T16:00:51;15.80;99.90
20380;DHT22;10349;48.666;8.948;2022-09-24T16:03:28;15.70;99.90
20380;DHT22;10349;48.666;8.948;2022-09-24T16:05:55;15.80;99.90
20380;DHT22;10349;48.666;8.948;2022-09-24T16:08:21;15.80;99.90
20380;DHT22;10349;48.666;8.948;2022-09-24T16:10:48;15.80;99.90
20380;DHT22;10349;48.666;8.948;2022-09-24T16:13:14;15.90;99.90
20380;DHT22;10349;48.666;8.948;2022-09-24T16:15:40;15.90;99.90
20380;DHT22;10349;48.666;8.948;2022-09-24T16:18:08;15.90;99.90
20380;DHT22;10349;48.666;8.948;2022-09-24T16:20:37;15.80;99.90
20380;DHT22;10349;48.666;8.948;2022-09-24T16:23:03;15.80;99.90
20380;DHT22;10349;48.666;8.948;2022-09-24T16:25:29;15.80;99.90
20380;DHT22;10349;48.666;8.948;2022-09-24T16:27:56;15.80;99.90
20380;DHT22;10349;48.666;8.948;2022-09-24T16:30:22;15.70;99.90
20380;DHT22;10349;48.666;8.948;2022-09-24T16:32:48;15.70;99.90
20380;DHT22;10349;48.666;8.948;2022-09-24T16:35:14;15.60;99.90
20380;DHT22;10349;48.666;8.948;2022-09-24T16:37:40;15.70;99.90
20380;DHT22;10349;48.666;8.948;2022-09-24T16:40:06;15.70;99.90
20380;DHT22;10349;48.666;8.948;2022-09-24T16:42:33;15.70;99.90
20380;DHT22;10349;48.666;8.948;2022-09-24T16:44:58;15.60;99.90
20380;DHT22;10349;48.666;8.948;2022-09-24T16:47:24;15.60;99.90
20380;DHT22;10349;48.666;8.948;2022-09-24T16:49:50;15.50;99.90
20380;DHT22;10349;48.666;8.948;2022-09-24T16:52:15;15.40;99.90
20380;DHT22;10349;48.666;8.948;2022-09-24T16:54:41;15.30;99.90
20380;DHT22;10349;48.666;8.948;2022-09-24T16:57:07;15.20;99.90
20380;DHT22;10349;48.666;8.948;2022-09-24T16:59:33;15.10;99.90
20380;DHT22;10349;48.666;8.948;2022-09-24T17:01:58;15.10;99.90
20380;DHT22;10349;48.666;8.948;2022-09-24T17:04:25;15.10;99.90
20380;DHT22;10349;48.666;8.948;2022-09-24T17:06:55;15.00;99.90
20380;DHT22;10349;48.666;8.948;2022-09-24T17:09:21;15.00;99.90
20380;DHT22;10349;48.666;8.948;2022-09-24T17:12:05;14.90;99.90
20380;DHT22;10349;48.666;8.948;2022-09-24T17:14:30;14.80;99.90
20380;DHT22;10349;48.666;8.948;2022-09-24T17:16:56;14.70;99.90
20380;DHT22;10349;48.666;8.948;2022-09-24T17:19:22;14.70;99.90
20380;DHT22;10349;48.666;8.948;2022-09-24T17:21:47;14.70;99.90
20380;DHT22;10349;48.666;8.948;2022-09-24T17:24:17;14.50;99.90
20380;DHT22;10349;48.666;8.948;2022-09-24T17:26:43;14.40;99.90
20380;DHT22;10349;48.666;8.948;2022-09-24T17:29:10;14.40;99.90
20380;DHT22;10349;48.666;8.948;2022-09-24T17:31:36;14.30;99.90
20380;DHT22;10349;48.666;8.948;2022-09-24T17:34:06;14.30;99.90
20380;DHT22;10349;48.666;8.948;2022-09-24T17:36:37;14.30;99.90
20380;DHT22;10349;48.666;8.948;2022-09-24T17:39:03;14.40;99.90
20380;DHT22;10349;48.666;8.948;2022-09-24T17:41:30;14.30;99.90
20380;DHT22;10349;48.666;8.948;2022-09-24T17:43:56;14.30;99.90
20380;DHT22;10349;48.666;8.948;2022-09-24T17:46:23;14.20;99.90
20380;DHT22;10349;48.666;8.948;2022-09-24T17:48:54;14.10;99.90